x

Texas Tower #4 - 75 Nm East Of Long Beach, Nj (44066) Wave Buoy

10:50am - Sun 21st Sep 2014 All times are EDT. -4 hours from GMT.

  • Sig Wave height 4.3ft
  • Swell Direction
  • Peak Period 8s
  • Average Period 6s
  • Wind
    9mph, 11mph gusts
  • Sea Temp 71°f
  • Air Temp 72°f
  • Sea Pressure 1010.3mb
  • Texas Tower #4 - 75 Nm East Of Long Beach, Nj
  • Texas Tower #4 - 75 Nm East Of Long Beach, Nj

More Historic Weather Station data

Upgrade to MSW Pro to gain access to the past 30 days of data for over 8000 Wavebouys and Weather Stations around the globe.

Join Pro

Comparision Forecast

View Surf forecast
   
Sun 09/21 10:50am 4.5ft 8s 6s 9 11 mph 1010.3mb 71f 72f
9:50am 5ft 8s 6s 11 13 mph 1010.9mb 71f 72f
8:50am 4.5ft 8s 6s 9 11 mph 1011.5mb 71f 72f
7:50am 4.5ft 7s 5s 9
mph
1012.2mb 72f 71f
6:50am 4.5ft 8s 5s 7 9 mph 1013.2mb 72f 73f
5:50am 4.5ft 8s 6s 13 16 mph 1012.7mb 72f 73f
4:50am 4.5ft 8s 5s 13 18 mph 1013.4mb 72f 74f
3:50am 5ft 8s 5s 9 11 mph 1014.4mb 72f 73f
2:50am 4.5ft 8s 5s 13 16 mph 1015mb 72f 73f
1:50am 5ft 6s 5s 16 18 mph 1016.1mb 72f 73f
12:50am 5ft 8s 5s 16 18 mph 1016.8mb 72f 74f
Sat 09/20 11:50pm 5ft 6s 5s 18 22 mph 1017.2mb 72f 74f
10:50pm 5ft 8s 5s 20 25 mph 1017.9mb 72f 73f
9:50pm 5ft 9s 5s 18 20 mph 1019mb 72f 73f
8:50pm 4.5ft 9s 5s 16 18 mph 1019.9mb 72f 73f
7:50pm 4.5ft 10s 5s 16 18 mph 1019.9mb 73f 73f
6:50pm 4.5ft 10s 5s 16 20 mph 1020.3mb 73f 73f
5:50pm 4.5ft 10s 5s 18 20 mph 1020.5mb 73f 73f
4:50pm 4.5ft 9s 5s 18 20 mph 1021.1mb 73f 72f
3:50pm 4.5ft 9s 5s 16 20 mph 1021.8mb 73f 71f
2:50pm 4.5ft 10s 5s 18 20 mph 1022.4mb 73f 71f
1:50pm 4.5ft 8s 5s 18 20 mph 1023.1mb 73f 71f
12:50pm 4.5ft 8s 5s 18 22 mph 1024.2mb 72f 70f
11:50am 4.5ft 9s 5s 18 22 mph 1025mb 72f 70f
10:50am 4.5ft 7s 5s 18 20 mph 1025.4mb 72f 69f
9:50am 4.5ft 8s 5s 16 20 mph 1025.3mb 72f 69f
8:50am 4ft 9s 5s 16 18 mph 1025.7mb 72f 69f
7:50am 4.5ft 8s 6s 13 18 mph 1025.9mb 72f 68f
6:50am 4ft 6s 5s 13 18 mph 1026.3mb 72f 67f
5:50am 4ft 8s 5s 11 16 mph 1026.2mb 72f 67f
4:50am 4ft 9s 5s 13 16 mph 1025.8mb 72f 67f
3:50am 4ft 9s 5s 13 16 mph 1025.5mb 72f 67f
2:50am 4.5ft 6s 5s 16 18 mph 1025.9mb 72f 66f
1:50am  -   -   -  16 18 mph 1026.5mb 72f 66f
12:50am 4.5ft 6s 5s 16 18 mph 1027mb 72f 65f
Fri 09/19 11:50pm 5ft 7s 5s 16 18 mph 1027.5mb 72f 65f
10:50pm 5ft 7s 5s 16 18 mph 1027.9mb 72f 64f
9:50pm 5ft 7s 5s 16 20 mph 1027.9mb 72f 64f
8:50pm 5ft 7s 5s 16 20 mph 1027.7mb 72f 64f
7:50pm 5.5ft 7s 5s 18 20 mph 1026.8mb 72f 64f
6:50pm 5ft 6s 5s 18 22 mph 1026.4mb 72f 64f
5:50pm 5.5ft 7s 5s 20 25 mph 1026.4mb 72f 64f
4:50pm 6ft 7s 5s 22 27 mph 1026.2mb 72f 64f
3:50pm 6ft 7s 5s 22 25 mph 1025.8mb 72f 65f
2:50pm 6ft 7s 5s 20 25 mph 1025.4mb 72f 65f
1:50pm 6ft 7s 5s 22 27 mph 1025mb 72f 66f
12:50pm 6ft 7s 5s 22 27 mph 1024.8mb 72f 66f
11:50am 6ft 6s 5s 25 29 mph 1024.4mb 72f 66f
10:50am 6.5ft 6s 5s 25 29 mph 1024.2mb 72f 66f
9:50am 6ft 6s 5s 25 31 mph 1023.5mb 72f 66f
8:50am 5ft 5s 4s 25 29 mph 1022.9mb 72f 66f
7:50am 4.5ft 5s 4s 25 31 mph 1022.1mb 72f 66f
6:50am 3.5ft 11s 4s 25 29 mph 1021.3mb 72f 67f
5:50am 2.5ft 11s 5s 13 18 mph 1020.6mb 72f 68f
4:50am 2.5ft 10s 5s 13 16 mph 1019.9mb 73f 69f
3:50am 2.5ft 9s 6s 11 13 mph 1019.3mb 73f 69f
2:50am 2.5ft 9s 7s 9 11 mph 1019.2mb 73f 70f
1:50am 2.5ft 10s 7s 7 9 mph 1019mb 73f 69f
12:50am 2.5ft 10s 7s 4 7 mph 1018.9mb 73f 69f
Thu 09/18 11:50pm 2.5ft 11s 7s 4 9 mph 1018.6mb 73f 69f
10:50pm 2.5ft 11s 7s 4 7 mph 1018.3mb 73f 69f
9:50pm 2.5ft 11s 7s 4 7 mph 1017.9mb 73f 69f
8:50pm 3ft 11s 7s 7 9 mph 1017.2mb 73f 69f
7:50pm 3ft 11s 7s 9 11 mph 1016.3mb 74f 69f
6:50pm 3.5ft 11s 7s 9 11 mph 1016.1mb 74f 69f
5:50pm 3.5ft 11s 6s 9 13 mph 1016.2mb 74f 69f
4:50pm 3.5ft 11s 6s 9 11 mph 1015.9mb 74f 69f
3:50pm 3.5ft 11s 6s 11 13 mph 1015.5mb 74f 68f
2:50pm 3.5ft 13s 6s 11 13 mph 1015.2mb 74f 68f
1:50pm 3.5ft 12s 6s 11 13 mph 1015.3mb 74f 68f
12:50pm 3.5ft 13s 7s 13 16 mph 1015.4mb 73f 67f
11:50am 3.5ft 11s 7s 11 16 mph 1015.6mb 73f 68f
10:50am 4ft 13s 8s 11 16 mph 1015.6mb 73f 68f
9:50am 4.5ft 13s 8s 11 13 mph 1015.7mb 73f 68f
8:50am 4.5ft 14s 9s 11 13 mph 1015.6mb 73f 68f
7:50am 5ft 14s 10s 11 16 mph 1015.3mb 73f 68f
6:50am 6ft 14s 10s 11 13 mph 1014.8mb 73f 67f
5:50am 5.5ft 14s 10s 11 13 mph 1014.2mb 73f 67f
4:50am 5ft 13s 9s 11 16 mph 1013.6mb 73f 67f
3:50am 4.5ft 13s 9s 9 11 mph 1013.8mb 73f 67f
2:50am 4.5ft 13s 9s 9 11 mph 1013.9mb 74f 67f
1:50am 4ft 14s 9s 11 13 mph 1014.1mb 74f 67f
12:50am 4.5ft 14s 10s 11 13 mph 1014.5mb 74f 67f
Wed 09/17 11:50pm 4.5ft 11s 10s 9 13 mph 1014.9mb 74f 66f
10:50pm 4.5ft 14s 10s 7 9 mph 1015.3mb 74f 66f
9:50pm 4.5ft 14s 10s 7 9 mph 1015.6mb 74f 66f
8:50pm 4ft 14s 9s 4 7 mph 1015.7mb 74f 66f
7:50pm 4.5ft 13s 9s 4 7 mph 1015.4mb 74f 66f
6:50pm 4.5ft 14s 8s 7 9 mph 1015.1mb 74f 66f
5:50pm 4ft 12s 8s 7 9 mph 1015mb 75f 67f
4:50pm 4.5ft 12s 8s 9 11 mph 1014.9mb 75f 66f